sensor_id;sensor_type;location;lat;lon;timestamp;P1;durP1;ratioP1;P2;durP2;ratioP2
71763;SDS011;59602;52.142;5.408;2023-02-15T00:01:30;21.98;;;10.55;;
71763;SDS011;59602;52.142;5.408;2023-02-15T00:03:57;22.50;;;10.38;;
71763;SDS011;59602;52.142;5.408;2023-02-15T00:06:24;24.17;;;11.17;;
71763;SDS011;59602;52.142;5.408;2023-02-15T00:08:51;19.50;;;10.10;;
71763;SDS011;59602;52.142;5.408;2023-02-15T00:11:19;23.65;;;10.05;;
71763;SDS011;59602;52.142;5.408;2023-02-15T00:14:08;22.58;;;10.73;;
71763;SDS011;59602;52.142;5.408;2023-02-15T00:16:37;25.20;;;10.65;;
71763;SDS011;59602;52.142;5.408;2023-02-15T00:19:05;20.93;;;9.93;;
71763;SDS011;59602;52.142;5.408;2023-02-15T00:21:33;23.23;;;10.30;;
71763;SDS011;59602;52.142;5.408;2023-02-15T00:24:01;25.05;;;10.57;;
71763;SDS011;59602;52.142;5.408;2023-02-15T00:26:30;22.02;;;10.43;;
71763;SDS011;59602;52.142;5.408;2023-02-15T00:28:59;21.98;;;10.25;;
71763;SDS011;59602;52.142;5.408;2023-02-15T00:31:26;28.90;;;10.70;;
71763;SDS011;59602;52.142;5.408;2023-02-15T00:34:05;26.63;;;11.95;;
71763;SDS011;59602;52.142;5.408;2023-02-15T00:36:33;25.25;;;10.55;;
71763;SDS011;59602;52.142;5.408;2023-02-15T00:39:01;26.52;;;11.35;;
71763;SDS011;59602;52.142;5.408;2023-02-15T00:41:28;25.10;;;10.90;;
71763;SDS011;59602;52.142;5.408;2023-02-15T00:43:54;21.80;;;10.87;;
71763;SDS011;59602;52.142;5.408;2023-02-15T00:46:21;23.48;;;10.65;;
71763;SDS011;59602;52.142;5.408;2023-02-15T00:48:47;22.35;;;10.60;;
71763;SDS011;59602;52.142;5.408;2023-02-15T00:51:14;23.58;;;10.95;;
71763;SDS011;59602;52.142;5.408;2023-02-15T00:53:41;23.33;;;10.90;;
71763;SDS011;59602;52.142;5.408;2023-02-15T00:56:07;22.37;;;10.80;;
71763;SDS011;59602;52.142;5.408;2023-02-15T00:58:34;22.85;;;11.13;;
71763;SDS011;59602;52.142;5.408;2023-02-15T01:01:02;21.15;;;9.73;;
71763;SDS011;59602;52.142;5.408;2023-02-15T01:03:31;23.10;;;10.00;;
71763;SDS011;59602;52.142;5.408;2023-02-15T01:05:58;22.38;;;10.38;;
71763;SDS011;59602;52.142;5.408;2023-02-15T01:08:25;25.47;;;11.30;;
71763;SDS011;59602;52.142;5.408;2023-02-15T01:10:54;22.58;;;10.65;;
71763;SDS011;59602;52.142;5.408;2023-02-15T01:13:22;22.80;;;10.00;;
71763;SDS011;59602;52.142;5.408;2023-02-15T01:15:53;26.67;;;11.30;;
71763;SDS011;59602;52.142;5.408;2023-02-15T01:18:21;24.50;;;11.77;;
71763;SDS011;59602;52.142;5.408;2023-02-15T01:20:49;24.33;;;10.63;;
71763;SDS011;59602;52.142;5.408;2023-02-15T01:23:16;24.58;;;10.98;;
71763;SDS011;59602;52.142;5.408;2023-02-15T01:25:42;28.08;;;11.98;;
71763;SDS011;59602;52.142;5.408;2023-02-15T01:28:09;23.25;;;10.88;;
71763;SDS011;59602;52.142;5.408;2023-02-15T01:30:36;25.58;;;11.20;;
71763;SDS011;59602;52.142;5.408;2023-02-15T01:33:03;30.13;;;12.67;;
71763;SDS011;59602;52.142;5.408;2023-02-15T01:35:29;30.40;;;11.93;;
71763;SDS011;59602;52.142;5.408;2023-02-15T01:37:56;28.30;;;12.27;;
71763;SDS011;59602;52.142;5.408;2023-02-15T01:40:24;27.02;;;12.00;;
71763;SDS011;59602;52.142;5.408;2023-02-15T01:42:52;26.27;;;11.95;;
71763;SDS011;59602;52.142;5.408;2023-02-15T01:45:22;27.47;;;11.20;;
71763;SDS011;59602;52.142;5.408;2023-02-15T01:47:52;29.67;;;12.23;;
71763;SDS011;59602;52.142;5.408;2023-02-15T01:50:22;29.40;;;12.43;;
71763;SDS011;59602;52.142;5.408;2023-02-15T01:53:03;27.90;;;11.52;;
71763;SDS011;59602;52.142;5.408;2023-02-15T01:55:37;27.15;;;10.98;;
71763;SDS011;59602;52.142;5.408;2023-02-15T01:58:07;27.97;;;11.40;;
71763;SDS011;59602;52.142;5.408;2023-02-15T02:00:34;26.02;;;11.02;;
71763;SDS011;59602;52.142;5.408;2023-02-15T02:03:01;26.80;;;11.82;;
71763;SDS011;59602;52.142;5.408;2023-02-15T02:05:29;25.52;;;10.82;;
71763;SDS011;59602;52.142;5.408;2023-02-15T02:07:57;27.65;;;11.55;;
71763;SDS011;59602;52.142;5.408;2023-02-15T02:10:26;26.93;;;11.50;;
71763;SDS011;59602;52.142;5.408;2023-02-15T02:12:56;25.90;;;11.00;;
71763;SDS011;59602;52.142;5.408;2023-02-15T02:15:33;25.33;;;11.15;;
71763;SDS011;59602;52.142;5.408;2023-02-15T02:18:11;24.67;;;11.38;;
71763;SDS011;59602;52.142;5.408;2023-02-15T02:20:56;23.63;;;10.98;;
71763;SDS011;59602;52.142;5.408;2023-02-15T02:34:21;27.13;;;11.43;;
71763;SDS011;59602;52.142;5.408;2023-02-15T02:37:08;27.70;;;12.00;;
71763;SDS011;59602;52.142;5.408;2023-02-15T02:39:52;26.40;;;11.27;;
71763;SDS011;59602;52.142;5.408;2023-02-15T02:42:29;27.23;;;11.05;;
71763;SDS011;59602;52.142;5.408;2023-02-15T02:45:06;24.10;;;10.63;;
71763;SDS011;59602;52.142;5.408;2023-02-15T02:47:40;24.65;;;11.23;;
71763;SDS011;59602;52.142;5.408;2023-02-15T02:50:13;24.83;;;11.53;;
71763;SDS011;59602;52.142;5.408;2023-02-15T02:52:44;25.63;;;11.30;;
71763;SDS011;59602;52.142;5.408;2023-02-15T02:55:18;25.55;;;11.50;;
71763;SDS011;59602;52.142;5.408;2023-02-15T03:00:44;25.13;;;11.23;;
71763;SDS011;59602;52.142;5.408;2023-02-15T03:05:54;25.52;;;11.50;;
71763;SDS011;59602;52.142;5.408;2023-02-15T03:08:25;31.70;;;12.65;;
71763;SDS011;59602;52.142;5.408;2023-02-15T03:10:59;25.77;;;12.10;;
71763;SDS011;59602;52.142;5.408;2023-02-15T03:13:27;28.40;;;11.82;;
71763;SDS011;59602;52.142;5.408;2023-02-15T03:15:54;26.40;;;11.13;;
71763;SDS011;59602;52.142;5.408;2023-02-15T03:18:43;26.17;;;11.18;;
71763;SDS011;59602;52.142;5.408;2023-02-15T03:21:19;27.55;;;11.88;;
71763;SDS011;59602;52.142;5.408;2023-02-15T03:23:52;32.70;;;12.07;;
71763;SDS011;59602;52.142;5.408;2023-02-15T03:26:22;27.92;;;11.93;;
71763;SDS011;59602;52.142;5.408;2023-02-15T03:28:50;27.57;;;11.07;;
71763;SDS011;59602;52.142;5.408;2023-02-15T03:31:22;25.23;;;11.85;;
71763;SDS011;59602;52.142;5.408;2023-02-15T03:33:55;28.80;;;11.75;;
71763;SDS011;59602;52.142;5.408;2023-02-15T03:39:04;25.85;;;11.70;;
71763;SDS011;59602;52.142;5.408;2023-02-15T03:41:56;26.40;;;10.80;;
71763;SDS011;59602;52.142;5.408;2023-02-15T03:44:39;26.50;;;11.52;;
71763;SDS011;59602;52.142;5.408;2023-02-15T03:47:16;25.75;;;11.25;;
71763;SDS011;59602;52.142;5.408;2023-02-15T03:52:24;27.83;;;11.20;;
71763;SDS011;59602;52.142;5.408;2023-02-15T03:54:54;28.67;;;10.80;;
71763;SDS011;59602;52.142;5.408;2023-02-15T03:57:24;27.80;;;11.73;;
71763;SDS011;59602;52.142;5.408;2023-02-15T04:00:21;28.77;;;10.95;;
71763;SDS011;59602;52.142;5.408;2023-02-15T04:05:42;22.98;;;10.57;;
71763;SDS011;59602;52.142;5.408;2023-02-15T04:08:10;22.70;;;10.30;;
71763;SDS011;59602;52.142;5.408;2023-02-15T04:10:37;24.02;;;10.40;;
71763;SDS011;59602;52.142;5.408;2023-02-15T04:13:20;25.13;;;11.10;;
71763;SDS011;59602;52.142;5.408;2023-02-15T04:15:47;26.10;;;10.50;;
71763;SDS011;59602;52.142;5.408;2023-02-15T04:18:33;27.05;;;11.10;;
71763;SDS011;59602;52.142;5.408;2023-02-15T04:21:20;27.27;;;10.87;;
71763;SDS011;59602;52.142;5.408;2023-02-15T04:24:06;24.45;;;10.57;;
71763;SDS011;59602;52.142;5.408;2023-02-15T04:26:52;25.48;;;11.32;;
71763;SDS011;59602;52.142;5.408;2023-02-15T04:29:20;23.50;;;10.40;;
71763;SDS011;59602;52.142;5.408;2023-02-15T04:31:47;22.30;;;10.32;;
71763;SDS011;59602;52.142;5.408;2023-02-15T04:34:14;26.93;;;10.77;;
71763;SDS011;59602;52.142;5.408;2023-02-15T04:36:42;25.98;;;10.32;;
71763;SDS011;59602;52.142;5.408;2023-02-15T04:39:09;25.42;;;11.32;;
71763;SDS011;59602;52.142;5.408;2023-02-15T04:41:39;29.92;;;11.45;;
71763;SDS011;59602;52.142;5.408;2023-02-15T04:44:06;28.88;;;11.55;;
71763;SDS011;59602;52.142;5.408;2023-02-15T04:46:32;23.23;;;10.40;;
71763;SDS011;59602;52.142;5.408;2023-02-15T04:48:59;27.90;;;11.68;;
71763;SDS011;59602;52.142;5.408;2023-02-15T04:51:25;28.98;;;11.73;;
71763;SDS011;59602;52.142;5.408;2023-02-15T04:53:52;25.45;;;10.73;;
71763;SDS011;59602;52.142;5.408;2023-02-15T04:56:19;28.27;;;11.20;;
71763;SDS011;59602;52.142;5.408;2023-02-15T04:58:46;25.33;;;10.90;;
71763;SDS011;59602;52.142;5.408;2023-02-15T05:01:13;30.10;;;11.43;;
71763;SDS011;59602;52.142;5.408;2023-02-15T05:03:39;23.40;;;9.98;;
71763;SDS011;59602;52.142;5.408;2023-02-15T05:06:07;23.63;;;10.25;;
71763;SDS011;59602;52.142;5.408;2023-02-15T05:08:35;27.38;;;12.15;;
71763;SDS011;59602;52.142;5.408;2023-02-15T05:11:01;24.40;;;10.67;;
71763;SDS011;59602;52.142;5.408;2023-02-15T05:13:28;20.23;;;10.10;;
71763;SDS011;59602;52.142;5.408;2023-02-15T05:15:54;25.40;;;11.80;;
71763;SDS011;59602;52.142;5.408;2023-02-15T05:18:22;24.65;;;10.73;;
71763;SDS011;59602;52.142;5.408;2023-02-15T05:20:50;28.85;;;10.60;;
71763;SDS011;59602;52.142;5.408;2023-02-15T05:23:17;27.97;;;10.17;;
71763;SDS011;59602;52.142;5.408;2023-02-15T05:25:47;24.45;;;11.25;;
71763;SDS011;59602;52.142;5.408;2023-02-15T05:28:33;27.50;;;11.77;;
71763;SDS011;59602;52.142;5.408;2023-02-15T05:31:03;21.17;;;9.90;;
71763;SDS011;59602;52.142;5.408;2023-02-15T05:33:38;26.75;;;10.90;;
71763;SDS011;59602;52.142;5.408;2023-02-15T05:36:05;27.53;;;11.30;;
71763;SDS011;59602;52.142;5.408;2023-02-15T05:38:32;28.90;;;10.90;;
71763;SDS011;59602;52.142;5.408;2023-02-15T05:40:59;22.42;;;9.55;;
71763;SDS011;59602;52.142;5.408;2023-02-15T05:43:27;24.73;;;10.32;;
71763;SDS011;59602;52.142;5.408;2023-02-15T05:45:54;27.25;;;11.30;;
71763;SDS011;59602;52.142;5.408;2023-02-15T05:48:22;26.57;;;11.07;;
71763;SDS011;59602;52.142;5.408;2023-02-15T05:50:57;22.35;;;10.40;;
71763;SDS011;59602;52.142;5.408;2023-02-15T05:53:32;25.45;;;10.02;;
71763;SDS011;59602;52.142;5.408;2023-02-15T05:56:00;24.90;;;10.05;;
71763;SDS011;59602;52.142;5.408;2023-02-15T05:58:31;23.35;;;10.73;;
71763;SDS011;59602;52.142;5.408;2023-02-15T06:00:59;26.77;;;11.27;;
71763;SDS011;59602;52.142;5.408;2023-02-15T06:03:25;24.88;;;10.23;;
71763;SDS011;59602;52.142;5.408;2023-02-15T06:05:55;24.15;;;10.27;;
71763;SDS011;59602;52.142;5.408;2023-02-15T06:08:22;21.17;;;9.27;;
71763;SDS011;59602;52.142;5.408;2023-02-15T06:10:48;25.13;;;10.57;;
71763;SDS011;59602;52.142;5.408;2023-02-15T06:13:15;25.20;;;10.13;;
71763;SDS011;59602;52.142;5.408;2023-02-15T06:15:41;24.45;;;10.30;;
71763;SDS011;59602;52.142;5.408;2023-02-15T06:18:08;22.73;;;9.15;;
71763;SDS011;59602;52.142;5.408;2023-02-15T06:20:35;23.45;;;9.77;;
71763;SDS011;59602;52.142;5.408;2023-02-15T06:23:01;23.70;;;8.82;;
71763;SDS011;59602;52.142;5.408;2023-02-15T06:25:28;26.67;;;10.50;;
71763;SDS011;59602;52.142;5.408;2023-02-15T06:27:55;23.50;;;9.88;;
71763;SDS011;59602;52.142;5.408;2023-02-15T06:30:22;23.42;;;10.25;;
71763;SDS011;59602;52.142;5.408;2023-02-15T06:32:49;27.08;;;10.52;;
71763;SDS011;59602;52.142;5.408;2023-02-15T06:35:16;26.92;;;11.27;;
71763;SDS011;59602;52.142;5.408;2023-02-15T06:37:45;25.73;;;11.23;;
71763;SDS011;59602;52.142;5.408;2023-02-15T06:40:12;26.65;;;10.85;;
71763;SDS011;59602;52.142;5.408;2023-02-15T06:42:41;28.23;;;10.27;;
71763;SDS011;59602;52.142;5.408;2023-02-15T06:45:09;24.52;;;9.98;;
71763;SDS011;59602;52.142;5.408;2023-02-15T06:47:36;23.45;;;9.90;;
71763;SDS011;59602;52.142;5.408;2023-02-15T06:50:04;25.57;;;10.63;;
71763;SDS011;59602;52.142;5.408;2023-02-15T06:52:32;26.92;;;10.40;;
71763;SDS011;59602;52.142;5.408;2023-02-15T06:54:58;23.42;;;10.27;;
71763;SDS011;59602;52.142;5.408;2023-02-15T06:57:25;23.75;;;9.73;;
71763;SDS011;59602;52.142;5.408;2023-02-15T06:59:52;23.10;;;9.35;;
71763;SDS011;59602;52.142;5.408;2023-02-15T07:02:19;21.27;;;9.20;;
71763;SDS011;59602;52.142;5.408;2023-02-15T07:04:45;23.30;;;9.30;;
71763;SDS011;59602;52.142;5.408;2023-02-15T07:07:12;22.13;;;8.90;;
71763;SDS011;59602;52.142;5.408;2023-02-15T07:09:39;22.38;;;9.75;;
71763;SDS011;59602;52.142;5.408;2023-02-15T07:12:06;26.15;;;10.43;;
71763;SDS011;59602;52.142;5.408;2023-02-15T07:14:52;28.90;;;10.37;;
71763;SDS011;59602;52.142;5.408;2023-02-15T07:17:18;23.13;;;9.57;;
71763;SDS011;59602;52.142;5.408;2023-02-15T07:20:01;23.50;;;9.43;;
71763;SDS011;59602;52.142;5.408;2023-02-15T07:22:30;26.40;;;10.52;;
71763;SDS011;59602;52.142;5.408;2023-02-15T07:24:56;29.60;;;10.30;;
71763;SDS011;59602;52.142;5.408;2023-02-15T07:27:23;26.57;;;10.80;;
71763;SDS011;59602;52.142;5.408;2023-02-15T07:29:49;34.25;;;13.63;;
71763;SDS011;59602;52.142;5.408;2023-02-15T07:32:16;51.75;;;23.17;;
71763;SDS011;59602;52.142;5.408;2023-02-15T07:34:43;34.65;;;15.57;;
71763;SDS011;59602;52.142;5.408;2023-02-15T07:37:09;28.98;;;12.63;;
71763;SDS011;59602;52.142;5.408;2023-02-15T07:39:36;32.57;;;13.07;;
71763;SDS011;59602;52.142;5.408;2023-02-15T07:42:03;28.70;;;11.45;;
71763;SDS011;59602;52.142;5.408;2023-02-15T07:44:29;27.33;;;11.95;;
71763;SDS011;59602;52.142;5.408;2023-02-15T07:46:56;26.80;;;11.20;;
71763;SDS011;59602;52.142;5.408;2023-02-15T07:49:22;27.48;;;11.30;;
71763;SDS011;59602;52.142;5.408;2023-02-15T07:51:49;24.67;;;10.23;;
71763;SDS011;59602;52.142;5.408;2023-02-15T07:54:16;22.70;;;10.18;;
71763;SDS011;59602;52.142;5.408;2023-02-15T07:56:42;29.60;;;10.40;;
71763;SDS011;59602;52.142;5.408;2023-02-15T07:59:09;24.00;;;10.27;;
71763;SDS011;59602;52.142;5.408;2023-02-15T08:01:37;26.55;;;10.93;;
71763;SDS011;59602;52.142;5.408;2023-02-15T08:04:05;24.70;;;10.03;;
71763;SDS011;59602;52.142;5.408;2023-02-15T08:06:35;26.42;;;10.40;;
71763;SDS011;59602;52.142;5.408;2023-02-15T08:09:04;26.27;;;10.30;;
71763;SDS011;59602;52.142;5.408;2023-02-15T08:11:34;28.85;;;10.70;;
71763;SDS011;59602;52.142;5.408;2023-02-15T08:14:08;24.77;;;10.15;;
71763;SDS011;59602;52.142;5.408;2023-02-15T08:16:45;22.33;;;9.97;;
71763;SDS011;59602;52.142;5.408;2023-02-15T08:19:19;24.38;;;10.38;;
71763;SDS011;59602;52.142;5.408;2023-02-15T08:21:56;23.55;;;9.18;;
71763;SDS011;59602;52.142;5.408;2023-02-15T08:24:26;24.98;;;9.65;;
71763;SDS011;59602;52.142;5.408;2023-02-15T08:26:55;24.67;;;10.38;;
71763;SDS011;59602;52.142;5.408;2023-02-15T08:29:24;25.83;;;10.27;;
71763;SDS011;59602;52.142;5.408;2023-02-15T08:31:54;26.52;;;11.10;;
71763;SDS011;59602;52.142;5.408;2023-02-15T08:34:31;26.77;;;10.07;;
71763;SDS011;59602;52.142;5.408;2023-02-15T08:37:00;24.00;;;9.88;;
71763;SDS011;59602;52.142;5.408;2023-02-15T08:39:27;26.13;;;10.27;;
71763;SDS011;59602;52.142;5.408;2023-02-15T08:41:54;27.40;;;11.93;;
71763;SDS011;59602;52.142;5.408;2023-02-15T08:44:21;25.02;;;10.35;;
71763;SDS011;59602;52.142;5.408;2023-02-15T08:46:49;23.08;;;10.20;;
71763;SDS011;59602;52.142;5.408;2023-02-15T08:49:17;25.63;;;10.38;;
71763;SDS011;59602;52.142;5.408;2023-02-15T08:51:46;28.73;;;11.63;;
71763;SDS011;59602;52.142;5.408;2023-02-15T08:54:15;24.23;;;11.47;;
71763;SDS011;59602;52.142;5.408;2023-02-15T08:56:45;26.30;;;11.43;;
71763;SDS011;59602;52.142;5.408;2023-02-15T08:59:14;25.95;;;11.02;;
71763;SDS011;59602;52.142;5.408;2023-02-15T09:01:44;25.73;;;10.85;;
71763;SDS011;59602;52.142;5.408;2023-02-15T09:04:12;26.60;;;12.02;;
71763;SDS011;59602;52.142;5.408;2023-02-15T09:06:39;29.77;;;12.40;;
71763;SDS011;59602;52.142;5.408;2023-02-15T09:09:07;33.50;;;13.93;;
71763;SDS011;59602;52.142;5.408;2023-02-15T09:11:36;30.70;;;13.20;;
71763;SDS011;59602;52.142;5.408;2023-02-15T09:14:06;30.10;;;12.80;;
71763;SDS011;59602;52.142;5.408;2023-02-15T09:16:35;30.88;;;12.70;;
71763;SDS011;59602;52.142;5.408;2023-02-15T09:19:04;34.30;;;13.83;;
71763;SDS011;59602;52.142;5.408;2023-02-15T09:21:33;30.08;;;12.80;;
71763;SDS011;59602;52.142;5.408;2023-02-15T09:24:02;33.78;;;12.77;;
71763;SDS011;59602;52.142;5.408;2023-02-15T09:26:31;31.65;;;13.38;;
71763;SDS011;59602;52.142;5.408;2023-02-15T09:29:00;32.72;;;13.32;;
71763;SDS011;59602;52.142;5.408;2023-02-15T09:31:31;34.20;;;13.87;;
71763;SDS011;59602;52.142;5.408;2023-02-15T09:34:03;33.67;;;14.40;;
71763;SDS011;59602;52.142;5.408;2023-02-15T09:36:32;34.67;;;14.45;;
71763;SDS011;59602;52.142;5.408;2023-02-15T09:39:03;34.42;;;13.43;;
71763;SDS011;59602;52.142;5.408;2023-02-15T09:41:39;33.22;;;13.77;;
71763;SDS011;59602;52.142;5.408;2023-02-15T09:44:17;31.80;;;13.60;;
71763;SDS011;59602;52.142;5.408;2023-02-15T09:47:03;30.80;;;14.52;;
71763;SDS011;59602;52.142;5.408;2023-02-15T09:49:38;31.15;;;14.13;;
71763;SDS011;59602;52.142;5.408;2023-02-15T09:52:30;31.42;;;13.82;;
71763;SDS011;59602;52.142;5.408;2023-02-15T10:11:44;71.23;;;25.27;;
71763;SDS011;59602;52.142;5.408;2023-02-15T10:17:26;37.92;;;16.15;;
71763;SDS011;59602;52.142;5.408;2023-02-15T10:25:17;30.87;;;14.00;;
71763;SDS011;59602;52.142;5.408;2023-02-15T10:27:52;34.33;;;14.20;;
71763;SDS011;59602;52.142;5.408;2023-02-15T10:30:22;30.90;;;14.48;;
71763;SDS011;59602;52.142;5.408;2023-02-15T10:32:59;35.92;;;15.43;;
71763;SDS011;59602;52.142;5.408;2023-02-15T10:35:40;32.17;;;14.13;;
71763;SDS011;59602;52.142;5.408;2023-02-15T10:38:27;32.57;;;14.73;;
71763;SDS011;59602;52.142;5.408;2023-02-15T10:43:58;33.55;;;14.73;;
71763;SDS011;59602;52.142;5.408;2023-02-15T11:05:42;26.30;;;12.27;;
71763;SDS011;59602;52.142;5.408;2023-02-15T11:08:27;30.13;;;14.25;;
71763;SDS011;59602;52.142;5.408;2023-02-15T11:11:00;29.15;;;12.85;;
71763;SDS011;59602;52.142;5.408;2023-02-15T11:13:34;31.63;;;14.95;;
71763;SDS011;59602;52.142;5.408;2023-02-15T11:16:10;33.67;;;14.00;;
71763;SDS011;59602;52.142;5.408;2023-02-15T11:18:49;34.10;;;14.50;;
71763;SDS011;59602;52.142;5.408;2023-02-15T11:23:52;31.23;;;14.00;;
71763;SDS011;59602;52.142;5.408;2023-02-15T11:26:24;31.65;;;14.23;;
71763;SDS011;59602;52.142;5.408;2023-02-15T11:29:07;33.05;;;14.65;;
71763;SDS011;59602;52.142;5.408;2023-02-15T11:31:44;32.17;;;15.77;;
71763;SDS011;59602;52.142;5.408;2023-02-15T11:34:20;32.38;;;14.48;;
71763;SDS011;59602;52.142;5.408;2023-02-15T11:36:54;34.83;;;15.40;;
71763;SDS011;59602;52.142;5.408;2023-02-15T11:39:26;33.40;;;14.98;;
71763;SDS011;59602;52.142;5.408;2023-02-15T11:41:56;33.83;;;15.20;;
71763;SDS011;59602;52.142;5.408;2023-02-15T11:44:35;38.10;;;15.23;;
71763;SDS011;59602;52.142;5.408;2023-02-15T11:47:09;37.20;;;15.57;;
71763;SDS011;59602;52.142;5.408;2023-02-15T11:49:37;33.90;;;13.85;;
71763;SDS011;59602;52.142;5.408;2023-02-15T11:52:05;35.42;;;15.45;;
71763;SDS011;59602;52.142;5.408;2023-02-15T11:54:34;32.70;;;14.45;;
71763;SDS011;59602;52.142;5.408;2023-02-15T11:59:43;35.20;;;15.13;;
71763;SDS011;59602;52.142;5.408;2023-02-15T12:02:17;33.17;;;15.30;;
71763;SDS011;59602;52.142;5.408;2023-02-15T12:04:49;33.88;;;14.70;;
71763;SDS011;59602;52.142;5.408;2023-02-15T12:07:22;31.48;;;14.55;;
71763;SDS011;59602;52.142;5.408;2023-02-15T12:09:55;34.87;;;15.20;;
71763;SDS011;59602;52.142;5.408;2023-02-15T12:12:26;35.17;;;15.18;;
71763;SDS011;59602;52.142;5.408;2023-02-15T12:14:56;34.03;;;15.70;;
71763;SDS011;59602;52.142;5.408;2023-02-15T12:17:26;31.98;;;15.07;;
71763;SDS011;59602;52.142;5.408;2023-02-15T12:19:56;35.65;;;16.00;;
71763;SDS011;59602;52.142;5.408;2023-02-15T12:22:28;31.60;;;15.40;;
71763;SDS011;59602;52.142;5.408;2023-02-15T12:24:59;30.45;;;15.20;;
71763;SDS011;59602;52.142;5.408;2023-02-15T12:27:28;40.85;;;16.20;;
71763;SDS011;59602;52.142;5.408;2023-02-15T12:29:58;38.20;;;16.02;;
71763;SDS011;59602;52.142;5.408;2023-02-15T12:32:31;37.33;;;16.10;;
71763;SDS011;59602;52.142;5.408;2023-02-15T12:35:02;33.80;;;14.93;;
71763;SDS011;59602;52.142;5.408;2023-02-15T12:37:39;31.73;;;15.35;;
71763;SDS011;59602;52.142;5.408;2023-02-15T12:40:23;33.63;;;14.98;;
71763;SDS011;59602;52.142;5.408;2023-02-15T12:42:53;35.83;;;15.65;;
71763;SDS011;59602;52.142;5.408;2023-02-15T12:45:22;36.53;;;15.88;;
71763;SDS011;59602;52.142;5.408;2023-02-15T12:48:09;37.27;;;16.23;;
71763;SDS011;59602;52.142;5.408;2023-02-15T12:50:47;36.15;;;15.38;;
71763;SDS011;59602;52.142;5.408;2023-02-15T12:53:22;32.05;;;15.13;;
71763;SDS011;59602;52.142;5.408;2023-02-15T12:56:02;37.97;;;15.65;;
71763;SDS011;59602;52.142;5.408;2023-02-15T12:58:35;39.70;;;16.10;;
71763;SDS011;59602;52.142;5.408;2023-02-15T13:06:25;34.00;;;15.95;;
71763;SDS011;59602;52.142;5.408;2023-02-15T13:08:54;37.80;;;16.35;;
71763;SDS011;59602;52.142;5.408;2023-02-15T13:11:26;36.35;;;16.17;;
71763;SDS011;59602;52.142;5.408;2023-02-15T13:14:01;33.03;;;15.67;;
71763;SDS011;59602;52.142;5.408;2023-02-15T13:16:32;37.80;;;15.77;;
71763;SDS011;59602;52.142;5.408;2023-02-15T13:19:09;37.97;;;19.63;;
71763;SDS011;59602;52.142;5.408;2023-02-15T13:21:43;35.10;;;15.80;;
71763;SDS011;59602;52.142;5.408;2023-02-15T13:24:20;33.35;;;16.98;;
71763;SDS011;59602;52.142;5.408;2023-02-15T13:26:52;34.40;;;16.57;;
71763;SDS011;59602;52.142;5.408;2023-02-15T13:29:40;31.70;;;15.35;;
71763;SDS011;59602;52.142;5.408;2023-02-15T13:34:50;55.65;;;17.63;;
71763;SDS011;59602;52.142;5.408;2023-02-15T13:37:28;49.58;;;16.88;;
71763;SDS011;59602;52.142;5.408;2023-02-15T13:40:15;43.40;;;17.17;;
71763;SDS011;59602;52.142;5.408;2023-02-15T13:42:51;37.50;;;16.00;;
71763;SDS011;59602;52.142;5.408;2023-02-15T13:45:28;37.05;;;16.60;;
71763;SDS011;59602;52.142;5.408;2023-02-15T13:48:16;38.13;;;15.85;;
71763;SDS011;59602;52.142;5.408;2023-02-15T13:53:24;35.93;;;16.20;;
71763;SDS011;59602;52.142;5.408;2023-02-15T13:59:02;34.80;;;16.05;;
71763;SDS011;59602;52.142;5.408;2023-02-15T14:01:49;34.10;;;16.02;;
71763;SDS011;59602;52.142;5.408;2023-02-15T14:04:26;35.78;;;16.27;;
71763;SDS011;59602;52.142;5.408;2023-02-15T14:07:15;36.83;;;15.83;;
71763;SDS011;59602;52.142;5.408;2023-02-15T14:09:47;35.00;;;15.75;;
71763;SDS011;59602;52.142;5.408;2023-02-15T14:12:22;33.03;;;15.85;;
71763;SDS011;59602;52.142;5.408;2023-02-15T14:15:18;32.42;;;15.48;;
71763;SDS011;59602;52.142;5.408;2023-02-15T14:23:29;32.83;;;15.80;;
71763;SDS011;59602;52.142;5.408;2023-02-15T14:26:20;35.17;;;16.50;;
71763;SDS011;59602;52.142;5.408;2023-02-15T14:28:51;37.67;;;15.75;;
71763;SDS011;59602;52.142;5.408;2023-02-15T14:31:38;35.03;;;16.30;;
71763;SDS011;59602;52.142;5.408;2023-02-15T14:34:17;35.43;;;15.37;;
71763;SDS011;59602;52.142;5.408;2023-02-15T14:36:49;37.08;;;15.85;;
71763;SDS011;59602;52.142;5.408;2023-02-15T14:42:25;35.85;;;16.08;;
71763;SDS011;59602;52.142;5.408;2023-02-15T14:45:02;33.08;;;15.55;;
71763;SDS011;59602;52.142;5.408;2023-02-15T14:47:40;33.17;;;16.03;;
71763;SDS011;59602;52.142;5.408;2023-02-15T14:58:37;34.78;;;16.30;;
71763;SDS011;59602;52.142;5.408;2023-02-15T15:01:06;34.77;;;16.10;;
71763;SDS011;59602;52.142;5.408;2023-02-15T15:03:35;35.25;;;16.77;;
71763;SDS011;59602;52.142;5.408;2023-02-15T15:06:19;34.38;;;15.85;;
71763;SDS011;59602;52.142;5.408;2023-02-15T15:08:53;35.80;;;16.45;;
71763;SDS011;59602;52.142;5.408;2023-02-15T15:14:10;38.23;;;16.30;;
71763;SDS011;59602;52.142;5.408;2023-02-15T15:16:57;37.35;;;16.63;;
71763;SDS011;59602;52.142;5.408;2023-02-15T15:22:25;34.15;;;16.38;;
71763;SDS011;59602;52.142;5.408;2023-02-15T15:24:57;34.17;;;15.75;;
71763;SDS011;59602;52.142;5.408;2023-02-15T15:27:40;37.10;;;16.77;;
71763;SDS011;59602;52.142;5.408;2023-02-15T15:32:42;36.10;;;15.73;;
71763;SDS011;59602;52.142;5.408;2023-02-15T15:35:16;38.00;;;16.60;;
71763;SDS011;59602;52.142;5.408;2023-02-15T15:43:51;34.08;;;16.20;;
71763;SDS011;59602;52.142;5.408;2023-02-15T15:46:46;35.95;;;16.00;;
71763;SDS011;59602;52.142;5.408;2023-02-15T15:49:28;33.25;;;15.82;;
71763;SDS011;59602;52.142;5.408;2023-02-15T15:52:01;33.65;;;15.85;;
71763;SDS011;59602;52.142;5.408;2023-02-15T15:54:34;36.70;;;16.20;;
71763;SDS011;59602;52.142;5.408;2023-02-15T15:57:12;36.05;;;15.88;;
71763;SDS011;59602;52.142;5.408;2023-02-15T15:59:49;37.35;;;16.30;;
71763;SDS011;59602;52.142;5.408;2023-02-15T16:02:16;35.72;;;16.83;;
71763;SDS011;59602;52.142;5.408;2023-02-15T16:04:43;33.17;;;15.73;;
71763;SDS011;59602;52.142;5.408;2023-02-15T16:09:54;34.58;;;15.35;;
71763;SDS011;59602;52.142;5.408;2023-02-15T16:12:24;35.33;;;16.15;;
71763;SDS011;59602;52.142;5.408;2023-02-15T16:14:54;38.28;;;17.50;;
71763;SDS011;59602;52.142;5.408;2023-02-15T16:17:24;37.05;;;16.45;;
71763;SDS011;59602;52.142;5.408;2023-02-15T16:19:58;36.50;;;16.30;;
71763;SDS011;59602;52.142;5.408;2023-02-15T16:22:33;34.40;;;16.38;;
71763;SDS011;59602;52.142;5.408;2023-02-15T16:25:07;37.13;;;17.08;;
71763;SDS011;59602;52.142;5.408;2023-02-15T16:27:44;36.10;;;15.65;;
71763;SDS011;59602;52.142;5.408;2023-02-15T16:35:52;37.90;;;15.80;;
71763;SDS011;59602;52.142;5.408;2023-02-15T16:38:26;34.30;;;15.10;;
71763;SDS011;59602;52.142;5.408;2023-02-15T16:41:05;34.22;;;16.60;;
71763;SDS011;59602;52.142;5.408;2023-02-15T16:43:31;36.22;;;16.63;;
71763;SDS011;59602;52.142;5.408;2023-02-15T16:46:04;34.13;;;16.80;;
71763;SDS011;59602;52.142;5.408;2023-02-15T16:48:34;36.50;;;16.63;;
71763;SDS011;59602;52.142;5.408;2023-02-15T16:51:07;36.80;;;16.98;;
71763;SDS011;59602;52.142;5.408;2023-02-15T16:53:36;33.83;;;16.13;;
71763;SDS011;59602;52.142;5.408;2023-02-15T16:56:04;35.30;;;15.73;;
71763;SDS011;59602;52.142;5.408;2023-02-15T16:58:36;39.07;;;16.80;;
71763;SDS011;59602;52.142;5.408;2023-02-15T17:01:06;32.40;;;16.35;;